Lexa Maersk — OYYL2 — position and weather

sailwx.info

Track history (hours):
 
Tides and Currents Weather Stations Pressure Air Temp Water Temp Dewpoint Dewpoint Depression Visibility Wind Speed Wind Dir Waves Ship Positions

Lexa Maersk

Last reported at 2014-Oct-31 15:07 UTC. Time now 2014-Oct-31 18:21 UTC.
Position S 05°28' E 114°56'.

Length 265.8 m; beam 37.3 m; draft 14 m.

Type: Ship (hazmat cat A). MMSI: 219979000.

Date/timePositionNaut miles runAvg speedWind from/ knotsBaromVisibWave heightAir tempDewpointWater temp
2014-Oct-31 15:07S 05°28' E 114°56'1116.8
2014-Oct-31 14:28S 05°24' E 114°45'1516.6
2014-Oct-31 13:34S 05°17' E 114°32'1716.8
2014-Oct-31 12:34S 05°10' E 114°17'1717.0
2014-Oct-31 11:34S 05°03' E 114°01'1717.2
2014-Oct-31 10:34S 04°58' E 113°45'12417.4
2014-Oct-31 03:26S 04°28' E 111°44'4917.2
2014-Oct-31 00:33S 04°15' E 110°56'5516.3
2014-Oct-30 21:11S 03°60' E 110°03'1316.4
2014-Oct-30 20:24S 03°48' E 109°57'46117.2
2014-Oct-29 17:31N 01°15' E 104°09'1717.5
2014-Oct-29 16:33N 01°12' E 103°53'9 8.8
2014-Oct-29 15:32N 01°16' E 103°45'1 1.0
2014-Oct-29 14:33N 01°17' E 103°45'0 0.0
2014-Oct-29 13:33N 01°17' E 103°45'0 0.0
2014-Oct-29 12:33N 01°17' E 103°45'0 0.1
2014-Oct-29 11:26N 01°17' E 103°46'0 0.0
2014-Oct-29 10:33N 01°17' E 103°46'0 0.0
2014-Oct-29 09:32N 01°17' E 103°46'0 0.0
2014-Oct-29 08:27N 01°17' E 103°46'0 0.1
2014-Oct-29 07:25N 01°17' E 103°45'0 0.1
2014-Oct-29 06:20N 01°17' E 103°46'0 0.0
2014-Oct-29 05:33N 01°17' E 103°46'0 0.1
2014-Oct-29 04:29N 01°17' E 103°45'0 0.0
2014-Oct-29 03:32N 01°17' E 103°45'0 0.0
2014-Oct-29 02:25N 01°17' E 103°45'0 0.0
2014-Oct-29 01:33N 01°17' E 103°45'0 0.0
2014-Oct-29 00:33N 01°17' E 103°45'0 0.0
2014-Oct-28 23:05N 01°17' E 103°45'0 0.0
2014-Oct-28 21:29N 01°17' E 103°46'0 0.0
2014-Oct-28 20:32N 01°17' E 103°46'0 0.1
2014-Oct-28 19:33N 01°17' E 103°46'2 1.8
2014-Oct-28 18:33N 01°16' E 103°46'13 0.3
2014-Oct-27 02:33N 01°15' E 103°59'  
Track history (hours):
 
Tides and Currents Weather Stations Pressure Air Temp Water Temp Dewpoint Dewpoint Depression Visibility Wind Speed Wind Dir Waves Ship Positions

Lexa Maersk

Last reported at 2014-Oct-31 15:07 UTC. Time now 2014-Oct-31 18:21 UTC.
Position S 05°28' E 114°56'.

Length 265.8 m; beam 37.3 m; draft 14 m.

Type: Ship (hazmat cat A). MMSI: 219979000.

Date/timePositionNaut miles runAvg speedWind from/ knotsBaromVisibWave heightAir tempDewpointWater temp
2014-Oct-31 15:07S 05°28' E 114°56'1116.8
2014-Oct-31 14:28S 05°24' E 114°45'1516.6
2014-Oct-31 13:34S 05°17' E 114°32'1716.8
2014-Oct-31 12:34S 05°10' E 114°17'1717.0
2014-Oct-31 11:34S 05°03' E 114°01'1717.2
2014-Oct-31 10:34S 04°58' E 113°45'12417.4
2014-Oct-31 03:26S 04°28' E 111°44'4917.2
2014-Oct-31 00:33S 04°15' E 110°56'5516.3
2014-Oct-30 21:11S 03°60' E 110°03'1316.4
2014-Oct-30 20:24S 03°48' E 109°57'46117.2
2014-Oct-29 17:31N 01°15' E 104°09'1717.5
2014-Oct-29 16:33N 01°12' E 103°53'9 8.8
2014-Oct-29 15:32N 01°16' E 103°45'1 1.0
2014-Oct-29 14:33N 01°17' E 103°45'0 0.0
2014-Oct-29 13:33N 01°17' E 103°45'0 0.0
2014-Oct-29 12:33N 01°17' E 103°45'0 0.1
2014-Oct-29 11:26N 01°17' E 103°46'0 0.0
2014-Oct-29 10:33N 01°17' E 103°46'0 0.0
2014-Oct-29 09:32N 01°17' E 103°46'0 0.0
2014-Oct-29 08:27N 01°17' E 103°46'0 0.1
2014-Oct-29 07:25N 01°17' E 103°45'0 0.1
2014-Oct-29 06:20N 01°17' E 103°46'0 0.0
2014-Oct-29 05:33N 01°17' E 103°46'0 0.1
2014-Oct-29 04:29N 01°17' E 103°45'0 0.0
2014-Oct-29 03:32N 01°17' E 103°45'0 0.0
2014-Oct-29 02:25N 01°17' E 103°45'0 0.0
2014-Oct-29 01:33N 01°17' E 103°45'0 0.0
2014-Oct-29 00:33N 01°17' E 103°45'0 0.0
2014-Oct-28 23:05N 01°17' E 103°45'0 0.0
2014-Oct-28 21:29N 01°17' E 103°46'0 0.0
2014-Oct-28 20:32N 01°17' E 103°46'0 0.1
2014-Oct-28 19:33N 01°17' E 103°46'2 1.8
2014-Oct-28 18:33N 01°16' E 103°46'13 0.3
2014-Oct-27 02:33N 01°15' E 103°59'  

Dump ship's entire track history